createdAt,value
2018-04-25T00:00:34.653Z,20.97
2018-04-25T00:03:02.554Z,18.73
2018-04-25T00:05:30.473Z,19.50
2018-04-25T00:07:58.381Z,13.17
2018-04-25T00:10:26.289Z,21.60
2018-04-25T00:12:54.185Z,19.40
2018-04-25T00:15:22.072Z,18.70
2018-04-25T00:17:49.970Z,21.57
2018-04-25T00:20:17.870Z,23.30
2018-04-25T00:22:45.754Z,18.43
2018-04-25T00:25:13.670Z,21.77
2018-04-25T00:27:41.573Z,21.40
2018-04-25T00:30:09.485Z,18.10
2018-04-25T00:32:37.384Z,22.73
2018-04-25T00:35:05.281Z,19.13
2018-04-25T00:37:33.183Z,27.60
2018-04-25T00:40:01.091Z,27.50
2018-04-25T00:42:29.003Z,22.93
2018-04-25T00:44:56.898Z,22.87
2018-04-25T00:47:24.802Z,34.13
2018-04-25T00:49:52.694Z,34.50
2018-04-25T00:52:20.580Z,37.37
2018-04-25T00:54:48.521Z,44.67
2018-04-25T00:57:16.413Z,37.97
2018-04-25T00:59:44.318Z,48.30
2018-04-25T01:02:12.425Z,50.53
2018-04-25T01:04:40.326Z,51.67
2018-04-25T01:07:08.269Z,53.07
2018-04-25T01:09:36.163Z,56.70
2018-04-25T01:12:04.120Z,50.20
2018-04-25T01:14:31.954Z,50.90
2018-04-25T01:16:59.837Z,58.10
2018-04-25T01:19:27.742Z,51.30
2018-04-25T01:21:55.638Z,55.60
2018-04-25T01:24:23.521Z,57.83
2018-04-25T01:26:51.436Z,77.63
2018-04-25T01:29:19.329Z,52.00
2018-04-25T01:31:47.278Z,51.40
2018-04-25T01:34:21.291Z,57.00
2018-04-25T01:39:49.750Z,58.63
2018-04-25T01:42:17.665Z,53.17
2018-04-25T01:44:51.023Z,59.77
2018-04-25T01:47:19.850Z,66.17
2018-04-25T01:49:49.739Z,66.63
2018-04-25T01:52:23.929Z,62.10
2018-04-25T01:54:57.922Z,64.73
2018-04-25T01:57:32.069Z,71.80
2018-04-25T02:00:06.138Z,73.70
2018-04-25T02:02:34.191Z,77.03
2018-04-25T02:05:02.099Z,80.63
2018-04-25T02:07:30.002Z,83.43
2018-04-25T02:09:57.887Z,82.23
2018-04-25T02:12:25.791Z,77.83
2018-04-25T02:14:53.709Z,90.50
2018-04-25T02:17:21.649Z,88.40
2018-04-25T02:19:49.573Z,93.83
2018-04-25T02:22:17.479Z,93.17
2018-04-25T02:24:45.369Z,102.10
2018-04-25T02:27:13.261Z,102.30
2018-04-25T02:29:41.149Z,111.67
2018-04-25T02:32:09.070Z,102.80
2018-04-25T02:34:36.962Z,99.00
2018-04-25T02:37:04.877Z,106.03
2018-04-25T02:39:32.773Z,105.50
2018-04-25T02:42:00.685Z,105.80
2018-04-25T02:44:28.594Z,95.43
2018-04-25T02:46:56.497Z,95.70
2018-04-25T02:49:24.413Z,100.30
2018-04-25T02:51:52.331Z,109.70
2018-04-25T02:54:20.230Z,111.40
2018-04-25T02:56:48.146Z,103.07
2018-04-25T02:59:16.053Z,121.13
2018-04-25T03:01:43.953Z,117.53
2018-04-25T03:04:12.062Z,120.50
2018-04-25T03:06:39.986Z,107.70
2018-04-25T03:09:07.874Z,123.07
2018-04-25T03:11:35.769Z,129.63
2018-04-25T03:14:03.694Z,130.07
2018-04-25T03:16:31.645Z,140.03
2018-04-25T03:18:59.558Z,152.47
2018-04-25T03:21:27.461Z,142.10
2018-04-25T03:23:55.374Z,133.60
2018-04-25T03:26:23.291Z,151.30
2018-04-25T03:28:51.177Z,126.27
2018-04-25T03:31:19.085Z,143.67
2018-04-25T03:33:47.014Z,136.80
2018-04-25T03:36:15.386Z,146.37
2018-04-25T03:38:43.284Z,140.97
2018-04-25T03:41:11.186Z,151.77
2018-04-25T03:43:39.102Z,128.87
2018-04-25T03:46:07.021Z,136.60
2018-04-25T03:48:35.165Z,133.90
2018-04-25T03:51:03.070Z,129.93
2018-04-25T03:53:30.969Z,131.40
2018-04-25T03:55:58.885Z,126.17
2018-04-25T03:58:26.795Z,126.83
2018-04-25T04:00:54.714Z,129.20
2018-04-25T04:03:22.605Z,123.17
2018-04-25T04:05:50.887Z,134.00
2018-04-25T04:08:18.791Z,127.57
2018-04-25T04:10:53.657Z,133.53
2018-04-25T04:13:21.567Z,119.27
2018-04-25T04:15:49.465Z,123.90
2018-04-25T04:18:17.362Z,125.27
2018-04-25T04:20:45.262Z,117.43
2018-04-25T04:23:13.157Z,123.50
2018-04-25T04:25:41.040Z,112.87
2018-04-25T04:28:08.953Z,126.13
2018-04-25T04:30:36.835Z,110.80
2018-04-25T04:33:04.746Z,119.13
2018-04-25T04:35:32.646Z,117.50
2018-04-25T04:38:00.560Z,114.40
2018-04-25T04:40:28.483Z,103.83
2018-04-25T04:42:56.375Z,123.90
2018-04-25T04:45:24.273Z,107.10
2018-04-25T04:47:52.161Z,104.00
2018-04-25T04:50:20.058Z,106.73
2018-04-25T04:52:47.998Z,103.50
2018-04-25T04:55:15.902Z,101.87
2018-04-25T04:57:43.834Z,107.90
2018-04-25T05:00:11.729Z,102.30
2018-04-25T05:02:39.613Z,107.77
2018-04-25T05:05:07.512Z,93.40
2018-04-25T05:07:35.630Z,108.40
2018-04-25T05:10:03.524Z,96.07
2018-04-25T05:12:31.413Z,88.73
2018-04-25T05:14:59.324Z,90.40
2018-04-25T05:17:27.210Z,97.40
2018-04-25T05:19:55.119Z,86.13
2018-04-25T05:22:23.058Z,83.27
2018-04-25T05:24:50.947Z,81.20
2018-04-25T05:27:18.858Z,89.77
2018-04-25T05:29:46.751Z,93.43
2018-04-25T05:32:14.731Z,79.00
2018-04-25T05:34:42.539Z,78.50
2018-04-25T05:37:10.446Z,80.50
2018-04-25T05:39:38.338Z,86.30
2018-04-25T05:42:06.223Z,75.33
2018-04-25T05:44:34.121Z,88.37
2018-04-25T05:47:02.013Z,74.57
2018-04-25T05:49:30.090Z,73.87
2018-04-25T05:51:57.981Z,72.17
2018-04-25T05:54:25.882Z,67.23
2018-04-25T05:56:53.778Z,62.40
2018-04-25T05:59:21.666Z,65.80
2018-04-25T06:01:49.565Z,66.80
2018-04-25T06:04:17.556Z,66.63
2018-04-25T06:06:45.545Z,63.77
2018-04-25T06:09:13.618Z,60.17
2018-04-25T06:11:41.545Z,54.80
2018-04-25T06:14:09.454Z,53.80
2018-04-25T06:16:37.346Z,52.47
2018-04-25T06:19:05.254Z,46.67
2018-04-25T06:21:33.148Z,51.20
2018-04-25T06:24:01.078Z,45.17
2018-04-25T06:26:29.013Z,40.37
2018-04-25T06:28:56.889Z,38.73
2018-04-25T06:31:24.781Z,39.17
2018-04-25T06:33:52.666Z,41.70
2018-04-25T06:36:20.587Z,42.30
2018-04-25T06:38:48.508Z,37.87
2018-04-25T06:41:16.514Z,35.80
2018-04-25T06:43:44.329Z,36.67
2018-04-25T06:46:12.225Z,31.97
2018-04-25T06:48:40.102Z,27.50
2018-04-25T06:51:07.994Z,21.50
2018-04-25T06:53:35.886Z,18.47
2018-04-25T06:56:03.790Z,20.70
2018-04-25T06:58:31.699Z,23.10
2018-04-25T07:00:59.589Z,25.70
2018-04-25T07:03:27.474Z,16.40
2018-04-25T07:05:55.370Z,26.80
2018-04-25T07:08:23.274Z,24.17
2018-04-25T07:10:51.329Z,23.17
2018-04-25T07:13:19.241Z,26.73
2018-04-25T07:15:47.170Z,24.50
2018-04-25T07:18:15.062Z,26.10
2018-04-25T07:20:42.951Z,29.47
2018-04-25T07:23:10.845Z,22.93
2018-04-25T07:25:38.743Z,19.47
2018-04-25T07:28:06.650Z,19.57
2018-04-25T07:30:34.541Z,13.30
2018-04-25T07:33:02.460Z,13.80
2018-04-25T07:35:30.383Z,13.93
2018-04-25T07:37:58.242Z,11.43
2018-04-25T07:40:26.297Z,10.37
2018-04-25T07:42:54.185Z,12.57
2018-04-25T07:45:22.069Z,8.10
2018-04-25T07:47:49.983Z,7.47
2018-04-25T07:50:17.897Z,6.83
2018-04-25T07:52:45.938Z,5.17
2018-04-25T07:55:13.831Z,11.50
2018-04-25T07:57:41.783Z,5.20
2018-04-25T08:00:09.643Z,5.73
2018-04-25T08:02:37.542Z,5.33
2018-04-25T08:05:05.432Z,4.77
2018-04-25T08:07:33.346Z,7.87
2018-04-25T08:10:01.262Z,4.40
2018-04-25T08:12:35.495Z,4.80
2018-04-25T08:15:09.881Z,10.80
2018-04-25T08:17:53.776Z,5.17
2018-04-25T08:20:27.661Z,4.77
2018-04-25T08:22:55.554Z,5.20
2018-04-25T08:25:23.461Z,6.63
2018-04-25T08:27:51.414Z,4.80
2018-04-25T08:30:19.314Z,4.97
2018-04-25T08:32:47.263Z,4.20
2018-04-25T08:35:15.181Z,4.80
2018-04-25T08:37:43.089Z,6.63
2018-04-25T08:40:10.990Z,9.90
2018-04-25T08:42:38.887Z,4.80
2018-04-25T08:45:06.837Z,4.90
2018-04-25T08:47:34.710Z,4.87
2018-04-25T08:50:02.601Z,6.93
2018-04-25T08:52:30.501Z,6.00
2018-04-25T08:54:58.425Z,4.80
2018-04-25T08:57:26.338Z,3.57
2018-04-25T08:59:54.245Z,6.33
2018-04-25T09:02:22.157Z,9.83
2018-04-25T09:04:50.051Z,4.40
2018-04-25T09:07:17.957Z,5.77
2018-04-25T09:09:45.854Z,13.23
2018-04-25T09:12:13.772Z,6.63
2018-04-25T09:14:41.858Z,6.00
2018-04-25T09:17:09.766Z,3.83
2018-04-25T09:19:37.655Z,2.93
2018-04-25T09:22:05.577Z,4.03
2018-04-25T09:24:33.546Z,3.47
2018-04-25T09:27:01.408Z,3.80
2018-04-25T09:29:29.289Z,6.03
2018-04-25T09:31:57.177Z,10.23
2018-04-25T09:34:25.099Z,3.23
2018-04-25T09:36:52.975Z,8.03
2018-04-25T09:39:20.861Z,1.60
2018-04-25T09:41:48.946Z,4.27
2018-04-25T09:44:16.853Z,12.17
2018-04-25T09:46:44.990Z,7.60
2018-04-25T09:49:12.881Z,4.67
2018-04-25T09:51:40.808Z,5.53
2018-04-25T09:54:08.678Z,4.10
2018-04-25T09:56:36.557Z,6.53
2018-04-25T09:59:04.446Z,5.60
2018-04-25T10:01:32.369Z,4.30
2018-04-25T10:04:00.286Z,4.80
2018-04-25T10:06:28.177Z,4.80
2018-04-25T10:08:56.069Z,6.13
2018-04-25T10:11:24.061Z,11.57
2018-04-25T10:13:51.946Z,9.50
2018-04-25T10:16:20.089Z,5.17
2018-04-25T10:18:48.006Z,6.40
2018-04-25T10:21:15.909Z,7.30
2018-04-25T10:23:43.849Z,7.40
2018-04-25T10:26:11.696Z,8.73
2018-04-25T10:28:39.587Z,7.53
2018-04-25T10:31:07.493Z,4.80
2018-04-25T10:33:35.395Z,5.90
2018-04-25T10:36:03.282Z,2.90
2018-04-25T10:38:31.169Z,3.33
2018-04-25T10:40:59.077Z,2.57
2018-04-25T10:43:26.982Z,2.50
2018-04-25T10:45:54.942Z,2.77
2018-04-25T10:48:22.829Z,4.17
2018-04-25T10:50:50.729Z,5.77
2018-04-25T10:53:18.618Z,7.23
2018-04-25T10:55:46.510Z,7.20
2018-04-25T10:58:14.425Z,3.10
2018-04-25T11:00:42.313Z,2.77
2018-04-25T11:03:10.221Z,2.90
2018-04-25T11:05:38.110Z,1.90
2018-04-25T11:08:06.017Z,1.83
2018-04-25T11:10:33.911Z,1.30
2018-04-25T11:13:08.769Z,2.50
2018-04-25T11:15:36.698Z,1.10
2018-04-25T11:18:04.761Z,1.93
2018-04-25T11:20:32.645Z,1.17
2018-04-25T11:23:00.545Z,0.90
2018-04-25T11:25:28.424Z,2.07
2018-04-25T11:27:56.329Z,1.33
2018-04-25T11:30:24.217Z,1.57
2018-04-25T11:32:52.150Z,2.30
2018-04-25T11:35:20.057Z,1.67
2018-04-25T11:37:47.968Z,1.77
2018-04-25T11:40:15.869Z,2.50
2018-04-25T11:42:43.761Z,4.47
2018-04-25T11:45:11.660Z,1.90
2018-04-25T11:47:39.561Z,1.33
2018-04-25T11:50:07.494Z,0.90
2018-04-25T11:52:35.388Z,1.10
2018-04-25T11:55:03.293Z,1.73
2018-04-25T11:57:31.191Z,1.20
2018-04-25T11:59:59.107Z,2.63
2018-04-25T12:02:27.028Z,1.57
2018-04-25T12:04:55.002Z,1.67
2018-04-25T12:07:22.837Z,1.10
2018-04-25T12:09:50.761Z,3.23
2018-04-25T12:12:18.694Z,3.93
2018-04-25T12:14:46.643Z,1.03
2018-04-25T12:17:14.521Z,2.20
2018-04-25T12:19:42.593Z,1.20
2018-04-25T12:22:10.522Z,1.43
2018-04-25T12:24:38.419Z,2.70
2018-04-25T12:27:06.312Z,0.93
2018-04-25T12:29:34.240Z,1.30
2018-04-25T12:32:02.121Z,2.10
2018-04-25T12:34:30.022Z,1.60
2018-04-25T12:36:57.926Z,1.40
2018-04-25T12:39:25.872Z,3.40
2018-04-25T12:41:53.762Z,11.93
2018-04-25T12:44:21.666Z,3.33
2018-04-25T12:46:49.566Z,2.13
2018-04-25T12:49:17.465Z,3.07
2018-04-25T12:51:45.358Z,5.23
2018-04-25T12:54:13.264Z,2.87
2018-04-25T12:56:41.202Z,6.03
2018-04-25T12:59:09.105Z,4.67
2018-04-25T13:01:37.106Z,2.67
2018-04-25T13:04:04.913Z,3.20
2018-04-25T13:06:32.814Z,9.53
2018-04-25T13:09:00.804Z,2.30
2018-04-25T13:11:28.639Z,2.30
2018-04-25T13:13:56.557Z,2.47
2018-04-25T13:16:24.462Z,1.67
2018-04-25T13:18:52.367Z,4.40
2018-04-25T13:21:20.519Z,3.93
2018-04-25T13:23:48.413Z,5.83
2018-04-25T13:26:16.329Z,2.30
2018-04-25T13:28:44.249Z,3.27
2018-04-25T13:31:12.154Z,3.87
2018-04-25T13:33:40.080Z,3.63
2018-04-25T13:36:07.973Z,5.80
2018-04-25T13:38:35.865Z,6.60
2018-04-25T13:41:03.769Z,5.13
2018-04-25T13:43:31.685Z,3.13
2018-04-25T13:45:59.613Z,4.97
2018-04-25T13:48:27.511Z,2.47
2018-04-25T13:50:55.425Z,7.07
2018-04-25T13:53:23.371Z,6.03
2018-04-25T13:55:58.193Z,10.97
2018-04-25T13:58:26.245Z,10.10
2018-04-25T14:00:54.151Z,5.40
2018-04-25T14:03:22.041Z,2.53
2018-04-25T14:05:50.044Z,4.40
2018-04-25T14:08:17.895Z,4.87
2018-04-25T14:10:45.843Z,1.47
2018-04-25T14:13:13.748Z,6.93
2018-04-25T14:15:41.714Z,5.40
2018-04-25T14:18:09.552Z,3.50
2018-04-25T14:20:37.447Z,7.53
2018-04-25T14:23:05.500Z,3.83
2018-04-25T14:25:33.405Z,7.80
2018-04-25T14:28:01.298Z,6.77
2018-04-25T14:30:29.243Z,4.13
2018-04-25T14:32:57.134Z,8.20
2018-04-25T14:35:25.034Z,3.73
2018-04-25T14:37:52.953Z,11.07
2018-04-25T14:40:20.858Z,3.40
2018-04-25T14:42:48.770Z,6.20
2018-04-25T14:45:16.679Z,4.23
2018-04-25T14:47:44.706Z,4.70
2018-04-25T14:50:12.618Z,2.80
2018-04-25T14:52:40.533Z,1.73
2018-04-25T14:55:08.443Z,5.50
2018-04-25T14:57:36.335Z,4.60
2018-04-25T15:00:04.231Z,2.03
2018-04-25T15:02:32.142Z,1.40
2018-04-25T15:05:00.038Z,1.93
2018-04-25T15:07:27.958Z,5.40
2018-04-25T15:09:55.877Z,2.80
2018-04-25T15:12:23.773Z,2.40
2018-04-25T15:14:51.669Z,4.80
2018-04-25T15:17:19.573Z,2.07
2018-04-25T15:19:47.558Z,6.47
2018-04-25T15:22:15.410Z,2.10
2018-04-25T15:24:43.461Z,8.03
2018-04-25T15:27:11.357Z,1.60
2018-04-25T15:29:39.262Z,7.93
2018-04-25T15:32:07.157Z,1.70
2018-04-25T15:34:35.064Z,6.03
2018-04-25T15:37:02.949Z,4.87
2018-04-25T15:39:30.849Z,4.93
2018-04-25T15:41:58.918Z,9.40
2018-04-25T15:44:26.836Z,8.97
2018-04-25T15:46:54.729Z,4.20
2018-04-25T15:49:22.622Z,10.70
2018-04-25T15:51:50.529Z,1.73
2018-04-25T15:54:18.454Z,6.40
2018-04-25T15:56:46.341Z,4.77
2018-04-25T15:59:14.258Z,4.83
2018-04-25T16:01:42.149Z,4.00
2018-04-25T16:04:10.056Z,4.10
2018-04-25T16:06:37.929Z,3.40
2018-04-25T16:09:05.833Z,2.50
2018-04-25T16:11:33.734Z,5.40
2018-04-25T16:14:01.666Z,4.33
2018-04-25T16:16:29.569Z,1.80
2018-04-25T16:18:57.494Z,4.17
2018-04-25T16:21:25.581Z,8.50
2018-04-25T16:23:53.499Z,3.17
2018-04-25T16:26:21.601Z,4.37
2018-04-25T16:28:49.546Z,5.93
2018-04-25T16:31:24.522Z,7.60
2018-04-25T16:33:52.454Z,2.67
2018-04-25T16:36:20.345Z,5.23
2018-04-25T16:38:48.257Z,4.33
2018-04-25T16:41:16.162Z,2.90
2018-04-25T16:43:44.055Z,3.63
2018-04-25T16:46:11.964Z,4.80
2018-04-25T16:48:39.865Z,4.33
2018-04-25T16:51:07.804Z,2.93
2018-04-25T16:53:35.701Z,1.73
2018-04-25T16:56:03.613Z,9.63
2018-04-25T16:58:31.514Z,7.70
2018-04-25T17:00:59.412Z,2.00
2018-04-25T17:03:27.549Z,4.27
2018-04-25T17:05:55.456Z,2.70
2018-04-25T17:08:23.393Z,6.63
2018-04-25T17:10:51.318Z,2.87
2018-04-25T17:13:19.205Z,4.33
2018-04-25T17:15:47.142Z,3.60
2018-04-25T17:18:15.050Z,5.80
2018-04-25T17:20:42.966Z,6.00
2018-04-25T17:23:10.857Z,7.60
2018-04-25T17:25:38.765Z,6.20
2018-04-25T17:28:06.845Z,11.40
2018-04-25T17:30:34.745Z,3.53
2018-04-25T17:33:02.638Z,5.87
2018-04-25T17:35:30.546Z,7.10
2018-04-25T17:37:58.457Z,5.13
2018-04-25T17:40:26.350Z,3.37
2018-04-25T17:42:54.348Z,8.77
2018-04-25T17:45:22.164Z,4.60
2018-04-25T17:47:50.061Z,4.50
2018-04-25T17:50:17.966Z,2.47
2018-04-25T17:52:45.866Z,2.93
2018-04-25T17:55:14.037Z,11.40
2018-04-25T17:57:41.936Z,9.50
2018-04-25T18:00:09.846Z,5.53
2018-04-25T18:02:37.752Z,7.37
2018-04-25T18:05:05.650Z,3.20
2018-04-25T18:07:33.558Z,4.23
2018-04-25T18:10:01.463Z,3.53
2018-04-25T18:12:29.422Z,4.07
2018-04-25T18:14:57.345Z,3.30
2018-04-25T18:17:25.258Z,13.53
2018-04-25T18:19:53.158Z,13.43
2018-04-25T18:22:21.089Z,5.20
2018-04-25T18:24:48.990Z,5.27
2018-04-25T18:27:16.912Z,7.17
2018-04-25T18:29:44.992Z,13.20
2018-04-25T18:32:12.928Z,3.77
2018-04-25T18:34:40.823Z,5.70
2018-04-25T18:37:08.775Z,7.77
2018-04-25T18:39:36.674Z,10.93
2018-04-25T18:42:04.582Z,6.70
2018-04-25T18:44:32.495Z,7.07
2018-04-25T18:47:00.412Z,5.00
2018-04-25T18:49:28.385Z,4.53
2018-04-25T18:51:56.215Z,3.43
2018-04-25T18:54:24.122Z,7.53
2018-04-25T18:56:52.019Z,6.97
2018-04-25T18:59:19.916Z,5.87
2018-04-25T19:01:47.810Z,7.93
2018-04-25T19:06:39.306Z,3.77
2018-04-25T19:09:07.199Z,7.97
2018-04-25T19:11:35.098Z,4.70
2018-04-25T19:14:02.990Z,2.30
2018-04-25T19:16:30.889Z,2.20
2018-04-25T19:18:58.793Z,5.37
2018-04-25T19:21:26.726Z,5.03
2018-04-25T19:23:54.641Z,5.07
2018-04-25T19:26:22.542Z,4.70
2018-04-25T19:28:50.454Z,5.50
2018-04-25T19:31:18.589Z,3.53
2018-04-25T19:33:46.500Z,9.87
2018-04-25T19:36:14.383Z,5.70
2018-04-25T19:38:42.266Z,3.73
2018-04-25T19:41:10.187Z,3.30
2018-04-25T19:43:38.093Z,4.20
2018-04-25T19:46:06.030Z,4.50
2018-04-25T19:48:33.915Z,9.10
2018-04-25T19:51:01.824Z,3.60
2018-04-25T19:53:29.717Z,2.80
2018-04-25T19:55:57.614Z,3.57
2018-04-25T19:58:25.505Z,2.83
2018-04-25T20:00:53.405Z,4.33
2018-04-25T20:03:21.334Z,7.53
2018-04-25T20:05:49.246Z,3.80
2018-04-25T20:08:17.149Z,3.80
2018-04-25T20:10:45.055Z,2.70
2018-04-25T20:13:12.970Z,4.07
2018-04-25T20:15:40.865Z,2.57
2018-04-25T20:18:08.755Z,2.20
2018-04-25T20:20:36.662Z,1.80
2018-04-25T20:23:04.570Z,1.67
2018-04-25T20:25:32.467Z,1.60
2018-04-25T20:28:00.367Z,2.20
2018-04-25T20:30:28.277Z,2.03
2018-04-25T20:32:56.432Z,1.43
2018-04-25T20:35:24.343Z,2.33
2018-04-25T20:37:52.250Z,1.57
2018-04-25T20:40:20.137Z,2.47
2018-04-25T20:42:48.037Z,1.90
2018-04-25T20:45:15.947Z,1.50
2018-04-25T20:47:43.854Z,3.93
2018-04-25T20:50:11.750Z,2.90
2018-04-25T20:52:39.654Z,2.70
2018-04-25T20:55:07.565Z,2.50
2018-04-25T20:57:35.469Z,2.90
2018-04-25T21:00:03.365Z,5.23
2018-04-25T21:02:31.322Z,2.33
2018-04-25T21:04:59.175Z,5.43
2018-04-25T21:07:27.065Z,2.63
2018-04-25T21:09:54.957Z,3.70
2018-04-25T21:12:22.866Z,2.37
2018-04-25T21:14:50.774Z,2.67
2018-04-25T21:17:18.666Z,2.60
2018-04-25T21:19:46.570Z,2.77
2018-04-25T21:22:14.479Z,2.77
2018-04-25T21:24:42.430Z,2.93
2018-04-25T21:27:10.345Z,3.17
2018-04-25T21:29:38.258Z,3.40
2018-04-25T21:32:13.270Z,4.90
2018-04-25T21:34:41.328Z,3.57
2018-04-25T21:37:09.221Z,3.20
2018-04-25T21:39:37.125Z,3.83
2018-04-25T21:42:05.031Z,3.50
2018-04-25T21:44:32.926Z,5.83
2018-04-25T21:47:00.828Z,4.20
2018-04-25T21:49:28.723Z,4.80
2018-04-25T21:51:56.628Z,5.57
2018-04-25T21:54:24.561Z,4.53
2018-04-25T21:56:52.454Z,7.73
2018-04-25T21:59:20.349Z,4.10
2018-04-25T22:01:48.241Z,7.80
2018-04-25T22:04:16.138Z,4.33
2018-04-25T22:06:44.050Z,4.30
2018-04-25T22:09:11.946Z,5.13
2018-04-25T22:11:39.847Z,8.00
2018-04-25T22:14:07.748Z,4.17
2018-04-25T22:16:35.662Z,5.03
2018-04-25T22:19:03.576Z,4.33
2018-04-25T22:21:31.485Z,5.33
2018-04-25T22:23:59.388Z,5.23
2018-04-25T22:26:27.279Z,6.80
2018-04-25T22:28:55.174Z,5.57
2018-04-25T22:31:23.083Z,5.63
2018-04-25T22:33:50.997Z,6.03
2018-04-25T22:36:19.117Z,6.60
2018-04-25T22:38:47.010Z,6.47
2018-04-25T22:41:14.929Z,5.70
2018-04-25T22:43:42.809Z,10.93
2018-04-25T22:46:10.729Z,8.10
2018-04-25T22:48:38.637Z,6.70
2018-04-25T22:51:06.546Z,7.87
2018-04-25T22:53:34.450Z,11.73
2018-04-25T22:56:02.358Z,7.83
2018-04-25T22:58:30.298Z,10.03
2018-04-25T23:00:58.173Z,12.03
2018-04-25T23:03:26.074Z,11.60
2018-04-25T23:05:53.981Z,9.27
2018-04-25T23:08:21.982Z,9.13
2018-04-25T23:10:49.773Z,10.80
2018-04-25T23:13:17.684Z,9.17
2018-04-25T23:15:45.585Z,10.90
2018-04-25T23:18:13.473Z,10.33
2018-04-25T23:20:41.375Z,9.07
2018-04-25T23:23:09.270Z,15.20
2018-04-25T23:25:37.161Z,10.30
2018-04-25T23:28:05.069Z,10.13
2018-04-25T23:30:32.978Z,11.87
2018-04-25T23:33:00.879Z,9.67
2018-04-25T23:35:28.780Z,15.00
2018-04-25T23:37:56.955Z,14.87
2018-04-25T23:40:24.870Z,11.70
2018-04-25T23:42:52.769Z,16.97
2018-04-25T23:45:20.694Z,15.53
2018-04-25T23:47:48.606Z,10.47
2018-04-25T23:50:16.508Z,11.73
2018-04-25T23:52:44.405Z,10.30
2018-04-25T23:55:12.317Z,13.73
2018-04-25T23:57:40.410Z,14.23
